createdAt,value
2023-04-29T00:01:25.084Z,16.58
2023-04-29T00:03:52.846Z,16.92
2023-04-29T00:06:20.681Z,17.03
2023-04-29T00:08:48.377Z,16.69
2023-04-29T00:11:16.285Z,16.35
2023-04-29T00:13:45.479Z,17.25
2023-04-29T00:16:13.865Z,16.10
2023-04-29T00:18:41.602Z,16.14
2023-04-29T00:21:09.643Z,16.36
2023-04-29T00:23:37.305Z,16.27
2023-04-29T00:26:05.060Z,16.90
2023-04-29T00:28:33.192Z,16.60
2023-04-29T00:31:02.322Z,16.18
2023-04-29T00:33:30.040Z,16.27
2023-04-29T00:35:57.992Z,16.66
2023-04-29T00:38:25.919Z,15.96
2023-04-29T00:40:53.691Z,15.79
2023-04-29T00:43:21.364Z,15.76
2023-04-29T00:45:50.926Z,15.46
2023-04-29T00:48:20.024Z,15.83
2023-04-29T00:50:47.673Z,15.77
2023-04-29T00:53:15.595Z,16.16
2023-04-29T00:55:44.113Z,15.49
2023-04-29T00:58:11.902Z,15.91
2023-04-29T01:00:39.693Z,16.21
2023-04-29T01:03:07.505Z,16.02
2023-04-29T01:05:51.269Z,16.48
2023-04-29T01:08:31.847Z,16.42
2023-04-29T01:11:07.752Z,16.52
2023-04-29T01:13:41.340Z,17.25
2023-04-29T01:16:12.963Z,15.45
2023-04-29T01:18:43.682Z,14.98
2023-04-29T01:21:12.754Z,16.09
2023-04-29T01:23:45.186Z,15.23
2023-04-29T01:26:14.676Z,15.24
2023-04-29T01:28:47.855Z,15.42
2023-04-29T01:31:19.968Z,15.35
2023-04-29T01:33:54.002Z,15.63
2023-04-29T01:36:29.040Z,16.50
2023-04-29T01:39:07.179Z,17.20
2023-04-29T01:41:40.913Z,16.62
2023-04-29T01:44:09.783Z,16.15
2023-04-29T01:46:37.665Z,15.25
2023-04-29T01:49:05.477Z,15.46
2023-04-29T01:51:34.182Z,16.86
2023-04-29T01:54:05.236Z,16.71
2023-04-29T01:56:32.997Z,15.79
2023-04-29T01:59:00.918Z,15.34
2023-04-29T02:01:28.612Z,15.78
2023-04-29T02:03:56.488Z,15.02
2023-04-29T02:06:24.601Z,15.60
2023-04-29T02:08:52.312Z,16.53
2023-04-29T02:11:21.413Z,15.60
2023-04-29T02:13:49.236Z,15.67
2023-04-29T02:16:17.509Z,15.35
2023-04-29T02:18:45.247Z,16.07
2023-04-29T02:21:13.341Z,15.30
2023-04-29T02:23:41.183Z,15.80
2023-04-29T02:26:10.024Z,15.76
2023-04-29T02:28:39.097Z,15.52
2023-04-29T02:31:06.857Z,16.47
2023-04-29T02:33:34.677Z,15.64
2023-04-29T02:36:02.370Z,15.99
2023-04-29T02:38:30.064Z,15.73
2023-04-29T02:40:58.200Z,16.37
2023-04-29T02:43:26.293Z,15.41
2023-04-29T02:45:55.707Z,15.64
2023-04-29T02:51:00.845Z,15.97
2023-04-29T02:53:28.500Z,15.44
2023-04-29T02:55:57.208Z,15.49
2023-04-29T02:58:24.992Z,15.83
2023-04-29T03:00:52.699Z,15.87
2023-04-29T03:03:23.337Z,16.69
2023-04-29T03:05:51.441Z,16.16
2023-04-29T03:08:19.204Z,16.42
2023-04-29T03:10:47.018Z,16.45
2023-04-29T03:13:14.692Z,15.71
2023-04-29T03:15:42.744Z,16.09
2023-04-29T03:18:10.452Z,16.62
2023-04-29T03:20:39.548Z,15.99
2023-04-29T03:23:07.218Z,16.26
2023-04-29T03:25:35.246Z,15.40
2023-04-29T03:28:03.436Z,16.41
2023-04-29T03:30:31.095Z,16.45
2023-04-29T03:32:58.837Z,15.12
2023-04-29T03:35:26.640Z,15.38
2023-04-29T03:37:55.835Z,15.91
2023-04-29T03:40:23.501Z,15.50
2023-04-29T03:42:51.209Z,16.72
2023-04-29T03:45:18.920Z,16.67
2023-04-29T03:47:46.909Z,15.21
2023-04-29T03:50:14.701Z,15.55
2023-04-29T03:52:42.631Z,15.68
2023-04-29T03:55:12.712Z,15.14
2023-04-29T03:57:42.842Z,15.79
2023-04-29T04:00:11.472Z,15.88
2023-04-29T04:02:39.328Z,15.93
2023-04-29T04:05:07.434Z,16.07
2023-04-29T04:07:35.182Z,16.99
2023-04-29T04:10:03.022Z,16.97
2023-04-29T04:12:32.073Z,16.19
2023-04-29T04:14:59.775Z,15.80
2023-04-29T04:17:27.623Z,15.71
2023-04-29T04:19:55.641Z,15.81
2023-04-29T04:22:23.319Z,15.60
2023-04-29T04:24:51.046Z,15.91
2023-04-29T04:27:18.719Z,15.84
2023-04-29T04:29:48.179Z,15.88
2023-04-29T04:32:15.959Z,15.41
2023-04-29T04:34:43.623Z,16.06
2023-04-29T04:37:11.952Z,15.79
2023-04-29T04:39:40.002Z,15.10
2023-04-29T04:42:07.736Z,15.80
2023-04-29T04:44:35.414Z,15.33
2023-04-29T04:47:05.521Z,16.17
2023-04-29T04:49:33.217Z,15.08
2023-04-29T04:52:01.136Z,15.11
2023-04-29T04:54:28.851Z,15.93
2023-04-29T04:56:56.499Z,16.08
2023-04-29T04:59:24.207Z,17.46
2023-04-29T05:02:06.011Z,15.51
2023-04-29T05:04:34.020Z,15.49
2023-04-29T05:07:01.786Z,15.83
2023-04-29T05:09:29.603Z,16.43
2023-04-29T05:11:59.233Z,14.57
2023-04-29T05:14:27.119Z,15.76
2023-04-29T05:16:54.962Z,15.82
2023-04-29T05:19:24.097Z,15.61
2023-04-29T05:21:51.908Z,15.47
2023-04-29T05:24:19.602Z,16.10
2023-04-29T05:26:47.413Z,15.78
2023-04-29T05:29:15.103Z,14.53
2023-04-29T05:31:42.905Z,16.25
2023-04-29T05:34:10.590Z,15.99
2023-04-29T05:36:39.710Z,15.38
2023-04-29T05:39:07.690Z,15.59
2023-04-29T05:41:35.453Z,15.28
2023-04-29T05:44:03.303Z,16.05
2023-04-29T05:46:30.988Z,14.94
2023-04-29T05:48:58.660Z,15.65
2023-04-29T05:51:28.213Z,15.62
2023-04-29T05:53:59.417Z,15.07
2023-04-29T05:56:27.196Z,15.91
2023-04-29T05:58:54.868Z,16.32
2023-04-29T06:01:22.530Z,15.92
2023-04-29T06:03:50.522Z,14.66
2023-04-29T06:06:18.819Z,16.01
2023-04-29T06:08:46.958Z,15.63
2023-04-29T06:11:16.025Z,15.68
2023-04-29T06:13:43.744Z,16.12
2023-04-29T06:16:11.686Z,16.34
2023-04-29T06:18:39.431Z,15.57
2023-04-29T06:21:07.386Z,14.70
2023-04-29T06:23:35.044Z,16.59
2023-04-29T06:26:39.020Z,15.28
2023-04-29T06:29:06.746Z,15.60
2023-04-29T06:31:34.452Z,15.69
2023-04-29T06:34:02.186Z,16.85
2023-04-29T06:36:29.846Z,15.85
2023-04-29T06:38:57.516Z,15.50
2023-04-29T06:41:25.257Z,15.69
2023-04-29T06:43:54.319Z,15.45
2023-04-29T06:46:22.060Z,15.71
2023-04-29T06:48:49.825Z,16.36
2023-04-29T06:51:17.511Z,15.89
2023-04-29T06:53:45.394Z,16.27
2023-04-29T06:56:14.138Z,15.68
2023-04-29T06:58:42.704Z,15.77
2023-04-29T07:01:11.951Z,15.98
2023-04-29T07:03:39.801Z,15.50
2023-04-29T07:06:07.674Z,15.83
2023-04-29T07:08:35.321Z,16.37
2023-04-29T07:11:03.368Z,15.84
2023-04-29T07:13:31.092Z,15.61
2023-04-29T07:15:58.805Z,16.00
2023-04-29T07:18:46.067Z,16.72
2023-04-29T07:21:13.874Z,17.29
2023-04-29T07:23:41.515Z,17.16
2023-04-29T07:26:13.354Z,16.92
2023-04-29T07:28:41.193Z,17.07
2023-04-29T07:31:09.233Z,17.60
2023-04-29T07:33:37.245Z,16.97
2023-04-29T07:36:07.411Z,17.21
2023-04-29T07:38:36.995Z,16.69
2023-04-29T07:41:05.253Z,17.14
2023-04-29T07:43:33.070Z,18.49
2023-04-29T07:46:00.758Z,17.79
2023-04-29T07:48:28.511Z,18.27
2023-04-29T07:50:56.272Z,18.24
2023-04-29T07:53:25.463Z,17.57
2023-04-29T07:55:53.138Z,17.77
2023-04-29T07:58:20.804Z,17.76
2023-04-29T08:00:48.746Z,17.02
2023-04-29T08:03:16.571Z,17.66
2023-04-29T08:05:45.355Z,16.56
2023-04-29T08:08:13.120Z,16.75
2023-04-29T08:10:43.970Z,17.32
2023-04-29T08:13:11.666Z,17.21
2023-04-29T08:15:39.322Z,18.17
2023-04-29T08:18:07.033Z,16.94
2023-04-29T08:20:34.741Z,17.15
2023-04-29T08:23:02.784Z,18.06
2023-04-29T08:25:30.600Z,18.44
2023-04-29T08:27:59.690Z,17.45
2023-04-29T08:30:27.402Z,17.74
2023-04-29T08:32:55.122Z,17.20
2023-04-29T08:35:22.958Z,18.24
2023-04-29T08:37:50.615Z,19.35
2023-04-29T08:40:18.581Z,19.52
2023-04-29T08:42:48.867Z,18.69
2023-04-29T08:45:21.785Z,19.13
2023-04-29T08:47:51.395Z,19.33
2023-04-29T08:50:19.660Z,19.87
2023-04-29T08:52:47.594Z,17.99
2023-04-29T08:55:15.365Z,18.79
2023-04-29T08:57:44.416Z,20.86
2023-04-29T09:00:13.670Z,19.74
2023-04-29T09:02:47.480Z,19.41
2023-04-29T09:05:15.312Z,20.12
2023-04-29T09:07:52.758Z,18.81
2023-04-29T09:10:20.475Z,18.47
2023-04-29T09:12:48.256Z,18.94
2023-04-29T09:15:16.239Z,19.02
2023-04-29T09:17:46.511Z,20.29
2023-04-29T09:20:28.007Z,18.65
2023-04-29T09:22:57.405Z,21.62
2023-04-29T09:25:27.280Z,19.78
2023-04-29T09:27:55.305Z,19.13
2023-04-29T09:30:23.242Z,21.19
2023-04-29T09:33:09.226Z,21.01
2023-04-29T09:35:37.488Z,18.99
2023-04-29T09:38:13.307Z,20.87
2023-04-29T09:40:57.302Z,19.60
2023-04-29T09:43:26.418Z,19.63
2023-04-29T09:45:54.211Z,18.71
2023-04-29T09:48:23.500Z,20.52
2023-04-29T09:51:02.118Z,21.47
2023-04-29T09:53:31.620Z,21.42
2023-04-29T09:56:00.561Z,20.52
2023-04-29T09:58:36.897Z,20.96
2023-04-29T10:01:05.443Z,21.41
2023-04-29T10:03:36.389Z,21.45
2023-04-29T10:06:05.933Z,19.27
2023-04-29T10:08:35.113Z,20.39
2023-04-29T10:11:04.010Z,18.60
2023-04-29T10:13:31.884Z,20.83
2023-04-29T10:16:05.636Z,22.23
2023-04-29T10:18:38.627Z,19.35
2023-04-29T10:21:12.757Z,19.30
2023-04-29T10:23:40.941Z,20.47
2023-04-29T10:26:10.024Z,21.36
2023-04-29T10:28:38.454Z,21.33
2023-04-29T10:31:08.205Z,21.60
2023-04-29T10:33:37.781Z,23.38
2023-04-29T10:36:06.187Z,22.88
2023-04-29T10:38:36.656Z,22.08
2023-04-29T10:41:09.995Z,21.95
2023-04-29T10:43:37.695Z,20.74
2023-04-29T10:46:20.096Z,21.13
2023-04-29T10:48:50.509Z,21.10
2023-04-29T10:51:35.457Z,23.26
2023-04-29T10:54:08.318Z,21.43
2023-04-29T10:56:41.918Z,21.07
2023-04-29T10:59:13.475Z,21.70
2023-04-29T11:01:47.039Z,19.74
2023-04-29T11:04:17.015Z,20.84
2023-04-29T11:06:49.162Z,22.21
2023-04-29T11:09:21.340Z,21.80
2023-04-29T11:11:59.161Z,21.69
2023-04-29T11:14:28.352Z,21.68
2023-04-29T11:16:58.951Z,20.60
2023-04-29T11:19:33.092Z,20.00
2023-04-29T11:22:15.048Z,20.60
2023-04-29T11:24:54.047Z,21.91
2023-04-29T11:27:25.492Z,22.80
2023-04-29T11:29:58.255Z,23.43
2023-04-29T11:32:26.992Z,22.88
2023-04-29T11:34:56.726Z,21.63
2023-04-29T11:37:55.276Z,22.03
2023-04-29T11:40:22.994Z,22.13
2023-04-29T11:42:51.319Z,20.34
2023-04-29T11:45:19.645Z,20.45
2023-04-29T11:47:55.461Z,20.75
2023-04-29T11:50:25.072Z,21.69
2023-04-29T11:52:52.976Z,21.41
2023-04-29T11:55:20.763Z,21.49
2023-04-29T11:57:50.393Z,20.54
2023-04-29T12:00:18.206Z,21.60
2023-04-29T12:02:47.916Z,20.83
2023-04-29T12:05:17.556Z,20.02
2023-04-29T12:07:47.153Z,20.08
2023-04-29T12:10:14.893Z,21.09
2023-04-29T12:12:44.016Z,21.55
2023-04-29T12:15:12.682Z,21.41
2023-04-29T12:17:52.615Z,20.22
2023-04-29T12:20:20.782Z,19.78
2023-04-29T12:22:50.034Z,21.05
2023-04-29T12:25:18.305Z,22.37
2023-04-29T12:27:46.030Z,19.95
2023-04-29T12:30:14.077Z,22.72
2023-04-29T12:32:42.039Z,20.98
2023-04-29T12:35:16.686Z,20.81
2023-04-29T12:37:44.498Z,22.33
2023-04-29T12:40:17.440Z,22.29
2023-04-29T12:42:46.654Z,22.29
2023-04-29T12:45:28.096Z,22.97
2023-04-29T12:47:57.790Z,23.13
2023-04-29T12:50:34.407Z,21.97
2023-04-29T12:53:03.373Z,20.05
2023-04-29T12:55:32.973Z,21.56
2023-04-29T12:58:09.509Z,22.03
2023-04-29T13:00:37.980Z,21.18
2023-04-29T13:03:06.482Z,20.77
2023-04-29T13:05:34.588Z,21.06
2023-04-29T13:08:02.401Z,21.82
2023-04-29T13:10:30.054Z,20.87
2023-04-29T13:13:17.517Z,21.05
2023-04-29T13:15:45.205Z,21.87
2023-04-29T13:18:12.913Z,22.72
2023-04-29T13:20:42.335Z,23.33
2023-04-29T13:23:10.481Z,23.31
2023-04-29T13:25:38.164Z,24.27
2023-04-29T13:28:07.446Z,25.39
2023-04-29T13:30:37.405Z,25.32
2023-04-29T13:33:11.823Z,24.54
2023-04-29T13:35:41.700Z,25.10
2023-04-29T13:38:09.851Z,23.83
2023-04-29T13:40:40.840Z,24.83
2023-04-29T13:43:15.425Z,26.03
2023-04-29T13:45:48.095Z,25.29
2023-04-29T13:48:45.300Z,27.70
2023-04-29T13:51:46.097Z,27.42
2023-04-29T14:04:01.296Z,26.02
2023-04-29T14:06:30.530Z,27.43
2023-04-29T14:08:58.570Z,25.77
2023-04-29T14:11:26.277Z,26.06
2023-04-29T14:13:53.969Z,23.68
2023-04-29T14:16:21.714Z,23.69
2023-04-29T14:18:50.793Z,23.90
2023-04-29T14:21:18.467Z,23.99
2023-04-29T14:23:46.284Z,24.74
2023-04-29T14:26:27.036Z,23.20
2023-04-29T14:28:58.438Z,24.58
2023-04-29T14:31:28.095Z,22.67
2023-04-29T14:33:57.866Z,23.64
2023-04-29T14:36:26.403Z,22.51
2023-04-29T14:38:54.450Z,22.54
2023-04-29T14:41:22.546Z,22.73
2023-04-29T14:43:50.439Z,23.02
2023-04-29T14:46:18.511Z,21.67
2023-04-29T14:48:46.337Z,21.47
2023-04-29T14:51:15.862Z,20.76
2023-04-29T14:53:44.145Z,21.09
2023-04-29T14:56:11.832Z,22.05
2023-04-29T14:58:39.515Z,22.19
2023-04-29T15:01:07.426Z,21.69
2023-04-29T15:06:07.913Z,22.71
2023-04-29T15:08:38.302Z,21.71
2023-04-29T15:11:06.023Z,22.45
2023-04-29T15:13:33.686Z,21.46
2023-04-29T15:16:01.464Z,21.42
2023-04-29T15:18:29.189Z,20.74
2023-04-29T15:20:56.928Z,22.66
2023-04-29T15:23:24.827Z,22.56
2023-04-29T15:25:54.009Z,21.29
2023-04-29T15:28:23.124Z,20.58
2023-04-29T15:30:51.075Z,22.26
2023-04-29T15:33:19.105Z,22.12
2023-04-29T15:35:46.842Z,21.95
2023-04-29T15:38:14.826Z,21.90
2023-04-29T15:40:42.513Z,22.66
2023-04-29T15:43:11.916Z,22.71
2023-04-29T15:45:39.689Z,21.74
2023-04-29T15:48:07.854Z,23.42
2023-04-29T15:50:35.609Z,22.51
2023-04-29T15:53:03.273Z,22.44
2023-04-29T15:55:31.330Z,23.35
2023-04-29T15:57:58.995Z,21.95
2023-04-29T16:00:28.485Z,22.41
2023-04-29T16:02:56.467Z,21.89
2023-04-29T16:05:24.188Z,20.74
2023-04-29T16:07:52.128Z,21.71
2023-04-29T16:10:19.842Z,21.22
2023-04-29T16:12:47.666Z,22.47
2023-04-29T16:15:15.603Z,21.85
2023-04-29T16:17:44.861Z,22.02
2023-04-29T16:20:13.072Z,22.08
2023-04-29T16:22:40.822Z,22.84
2023-04-29T16:25:09.247Z,21.97
2023-04-29T16:27:37.698Z,22.30
2023-04-29T16:30:06.177Z,21.71
2023-04-29T16:32:34.532Z,22.69
2023-04-29T16:35:03.673Z,22.45
2023-04-29T16:37:31.765Z,21.87
2023-04-29T16:39:59.899Z,22.29
2023-04-29T16:42:27.555Z,22.12
2023-04-29T16:44:55.278Z,22.72
2023-04-29T16:47:24.100Z,22.48
2023-04-29T16:49:52.092Z,21.48
2023-04-29T16:52:22.378Z,21.53
2023-04-29T16:54:50.398Z,22.92
2023-04-29T16:57:18.062Z,23.87
2023-04-29T16:59:45.937Z,24.26
2023-04-29T17:02:13.692Z,23.71
2023-04-29T17:04:41.536Z,25.45
2023-04-29T17:07:10.128Z,23.99
2023-04-29T17:09:39.446Z,22.92
2023-04-29T17:12:08.074Z,23.22
2023-04-29T17:14:41.069Z,22.44
2023-04-29T17:17:08.973Z,24.67
2023-04-29T17:19:36.654Z,21.87
2023-04-29T17:22:05.024Z,23.50
2023-04-29T17:24:33.699Z,22.49
2023-04-29T17:27:03.115Z,23.38
2023-04-29T17:29:30.801Z,22.18
2023-04-29T17:32:02.184Z,23.36
2023-04-29T17:34:31.135Z,24.34
2023-04-29T17:36:58.930Z,22.47
2023-04-29T17:39:26.595Z,23.51
2023-04-29T17:41:54.264Z,22.08
2023-04-29T17:44:23.731Z,22.56
2023-04-29T17:46:51.544Z,21.95
2023-04-29T17:49:19.216Z,22.13
2023-04-29T17:51:46.928Z,22.18
2023-04-29T17:54:14.624Z,22.18
2023-04-29T17:56:42.437Z,21.77
2023-04-29T17:59:11.139Z,21.16
2023-04-29T18:01:40.520Z,21.22
2023-04-29T18:04:08.306Z,20.83
2023-04-29T18:06:36.078Z,21.10
2023-04-29T18:09:04.534Z,19.98
2023-04-29T18:11:32.834Z,20.05
2023-04-29T18:14:01.306Z,19.51
2023-04-29T18:16:30.177Z,19.42
2023-04-29T18:18:59.330Z,19.20
2023-04-29T18:21:27.897Z,19.50
2023-04-29T18:23:55.685Z,19.34
2023-04-29T18:26:23.912Z,19.03
2023-04-29T18:28:51.805Z,19.18
2023-04-29T18:31:20.354Z,18.66
2023-04-29T18:33:48.440Z,18.74
2023-04-29T18:36:17.546Z,19.31
2023-04-29T18:38:45.640Z,18.21
2023-04-29T18:41:14.458Z,18.14
2023-04-29T18:43:45.491Z,17.84
2023-04-29T18:46:13.216Z,18.08
2023-04-29T18:48:41.409Z,18.17
2023-04-29T18:51:09.118Z,18.51
2023-04-29T18:53:38.240Z,18.27
2023-04-29T18:56:06.692Z,17.39
2023-04-29T18:58:34.648Z,17.39
2023-04-29T19:01:03.053Z,17.47
2023-04-29T19:03:30.816Z,18.06
2023-04-29T19:05:58.540Z,17.35
2023-04-29T19:08:26.933Z,16.92
2023-04-29T19:10:56.434Z,17.16
2023-04-29T19:13:26.676Z,16.57
2023-04-29T19:15:55.160Z,16.74
2023-04-29T19:18:23.785Z,16.82
2023-04-29T19:20:52.006Z,17.01
2023-04-29T19:23:19.683Z,16.42
2023-04-29T19:25:47.549Z,17.20
2023-04-29T19:28:16.642Z,17.04
2023-04-29T19:31:01.821Z,16.52
2023-04-29T19:33:29.767Z,16.60
2023-04-29T19:35:57.532Z,16.67
2023-04-29T19:38:25.646Z,16.96
2023-04-29T19:40:55.564Z,16.34
2023-04-29T19:43:24.680Z,16.03
2023-04-29T19:45:52.366Z,16.50
2023-04-29T19:48:20.195Z,16.66
2023-04-29T19:50:47.912Z,17.17
2023-04-29T19:53:15.586Z,16.92
2023-04-29T19:55:43.397Z,17.21
2023-04-29T19:58:11.308Z,17.01
2023-04-29T20:00:40.539Z,17.08
2023-04-29T20:03:08.237Z,16.94
2023-04-29T20:05:35.998Z,16.96
2023-04-29T20:08:21.881Z,16.57
2023-04-29T20:10:49.597Z,16.47
2023-04-29T20:13:17.283Z,15.78
2023-04-29T20:15:46.664Z,16.26
2023-04-29T20:18:14.333Z,15.93
2023-04-29T20:20:42.072Z,15.65
2023-04-29T20:23:09.803Z,15.79
2023-04-29T20:25:37.441Z,15.71
2023-04-29T20:28:05.501Z,15.56
2023-04-29T20:30:33.428Z,15.67
2023-04-29T20:33:02.686Z,15.53
2023-04-29T20:35:30.790Z,15.38
2023-04-29T20:37:59.092Z,15.80
2023-04-29T20:40:26.762Z,16.18
2023-04-29T20:42:54.452Z,15.54
2023-04-29T20:45:22.284Z,15.83
2023-04-29T20:47:49.995Z,16.19
2023-04-29T20:50:19.190Z,15.34
2023-04-29T20:52:49.170Z,15.40
2023-04-29T20:55:17.193Z,15.59
2023-04-29T20:57:44.860Z,15.55
2023-04-29T21:00:14.276Z,15.03
2023-04-29T21:02:42.058Z,15.31
2023-04-29T21:05:10.892Z,14.99
2023-04-29T21:07:40.138Z,15.72
2023-04-29T21:10:08.448Z,15.68
2023-04-29T21:12:36.242Z,15.25
2023-04-29T21:15:04.419Z,15.23
2023-04-29T21:17:32.142Z,15.24
2023-04-29T21:19:59.787Z,15.75
2023-04-29T21:22:27.566Z,15.67
2023-04-29T21:25:19.547Z,15.45
2023-04-29T21:27:47.230Z,15.19
2023-04-29T21:30:15.013Z,15.31
2023-04-29T21:32:42.694Z,15.47
2023-04-29T21:35:11.133Z,15.62
2023-04-29T21:37:38.952Z,15.31
2023-04-29T21:40:07.957Z,15.09
2023-04-29T21:42:37.064Z,14.88
2023-04-29T21:45:05.336Z,15.02
2023-04-29T21:47:33.223Z,14.67
2023-04-29T21:50:01.222Z,14.83
2023-04-29T21:52:29.042Z,15.02
2023-04-29T21:54:56.716Z,15.23
2023-04-29T21:57:35.496Z,14.84
2023-04-29T22:00:30.719Z,15.33
2023-04-29T22:02:58.472Z,15.14
2023-04-29T22:05:26.976Z,15.45
2023-04-29T22:07:55.047Z,15.49
2023-04-29T22:10:22.732Z,14.90
2023-04-29T22:12:50.586Z,14.38
2023-04-29T22:19:00.527Z,14.77
2023-04-29T22:21:29.612Z,15.21
2023-04-29T22:23:57.874Z,15.12
2023-04-29T22:26:28.206Z,14.58
2023-04-29T22:28:56.973Z,14.31
2023-04-29T22:31:26.910Z,14.09
2023-04-29T22:33:54.983Z,14.14
2023-04-29T22:36:24.344Z,14.36
2023-04-29T22:38:52.196Z,14.23
2023-04-29T22:41:20.425Z,14.32
2023-04-29T22:43:49.956Z,13.80
2023-04-29T22:46:17.912Z,14.53
2023-04-29T22:48:45.882Z,14.83
2023-04-29T22:51:13.944Z,15.08
2023-04-29T22:53:43.437Z,14.35
2023-04-29T22:56:11.836Z,13.43
2023-04-29T22:58:42.222Z,13.61
2023-04-29T23:01:11.902Z,13.85
2023-04-29T23:03:39.930Z,13.66
2023-04-29T23:06:08.108Z,13.77
2023-04-29T23:08:36.194Z,13.43
2023-04-29T23:11:06.127Z,14.30
2023-04-29T23:13:34.561Z,12.78
2023-04-29T23:16:02.397Z,13.40
2023-04-29T23:18:31.085Z,13.14
2023-04-29T23:20:59.198Z,13.33
2023-04-29T23:23:27.235Z,13.33
2023-04-29T23:25:55.722Z,13.41
2023-04-29T23:28:27.659Z,13.10
2023-04-29T23:30:55.598Z,13.37
2023-04-29T23:33:23.718Z,13.08
2023-04-29T23:35:52.174Z,13.84
2023-04-29T23:38:21.095Z,13.09
2023-04-29T23:40:48.886Z,12.97
2023-04-29T23:43:16.690Z,13.05
2023-04-29T23:45:47.389Z,13.30
2023-04-29T23:48:17.664Z,13.21
2023-04-29T23:50:47.179Z,13.70
2023-04-29T23:53:15.823Z,13.85
2023-04-29T23:55:44.339Z,13.69
2023-04-29T23:58:13.001Z,13.60
